createdAt,value
2018-03-25T00:00:12.182Z,0.00
2018-03-25T00:01:12.136Z,0.00
2018-03-25T00:02:12.092Z,0.00
2018-03-25T00:03:12.035Z,0.00
2018-03-25T00:04:11.987Z,0.00
2018-03-25T00:05:12.245Z,0.00
2018-03-25T00:06:11.895Z,0.00
2018-03-25T00:07:11.891Z,0.00
2018-03-25T00:08:11.792Z,0.00
2018-03-25T00:09:11.746Z,0.00
2018-03-25T00:10:11.696Z,0.00
2018-03-25T00:11:11.948Z,0.00
2018-03-25T00:12:11.606Z,0.00
2018-03-25T00:13:11.752Z,0.00
2018-03-25T00:14:11.502Z,0.00
2018-03-25T00:15:11.454Z,0.00
2018-03-25T00:16:11.409Z,0.00
2018-03-25T00:17:11.663Z,0.00
2018-03-25T00:18:11.310Z,0.00
2018-03-25T00:19:11.262Z,0.00
2018-03-25T00:20:11.264Z,0.00
2018-03-25T00:21:11.164Z,0.00
2018-03-25T00:22:11.120Z,0.00
2018-03-25T00:23:11.075Z,0.00
2018-03-25T00:24:11.321Z,0.00
2018-03-25T00:25:10.971Z,0.00
2018-03-25T00:26:10.924Z,0.00
2018-03-25T00:27:10.881Z,0.00
2018-03-25T00:28:10.829Z,0.00
2018-03-25T00:29:10.780Z,0.00
2018-03-25T00:30:10.732Z,0.00
2018-03-25T00:31:10.986Z,0.00
2018-03-25T00:32:10.687Z,0.00
2018-03-25T00:33:10.589Z,0.00
2018-03-25T00:34:10.595Z,0.00
2018-03-25T00:35:10.494Z,0.00
2018-03-25T00:36:10.444Z,0.00
2018-03-25T00:37:10.397Z,0.00
2018-03-25T00:38:10.651Z,0.00
2018-03-25T00:39:10.305Z,0.00
2018-03-25T00:40:10.253Z,0.00
2018-03-25T00:41:10.205Z,0.00
2018-03-25T00:42:10.158Z,0.00
2018-03-25T00:43:10.114Z,0.00
2018-03-25T00:44:10.061Z,0.00
2018-03-25T00:45:10.313Z,0.00
2018-03-25T00:46:09.967Z,0.00
2018-03-25T00:47:09.918Z,0.00
2018-03-25T00:48:09.868Z,0.00
2018-03-25T00:49:09.822Z,0.00
2018-03-25T00:50:09.773Z,0.00
2018-03-25T00:51:09.728Z,0.00
2018-03-25T00:52:09.983Z,0.00
2018-03-25T00:53:09.630Z,0.00
2018-03-25T00:54:09.582Z,0.00
2018-03-25T00:55:09.536Z,0.00
2018-03-25T00:56:09.495Z,0.00
2018-03-25T00:57:09.455Z,0.00
2018-03-25T00:58:09.392Z,0.00
2018-03-25T00:59:09.644Z,0.00
2018-03-25T01:00:09.295Z,0.00
2018-03-25T01:01:09.255Z,0.00
2018-03-25T01:02:09.204Z,0.00
2018-03-25T01:03:09.153Z,0.00
2018-03-25T01:04:09.104Z,0.00
2018-03-25T01:05:09.357Z,0.00
2018-03-25T01:06:09.011Z,0.00
2018-03-25T01:07:08.966Z,0.00
2018-03-25T01:08:08.921Z,0.00
2018-03-25T01:09:08.869Z,0.00
2018-03-25T01:10:08.826Z,0.00
2018-03-25T01:11:09.129Z,0.00
2018-03-25T01:12:08.725Z,0.00
2018-03-25T01:13:08.678Z,0.00
2018-03-25T01:14:08.632Z,0.00
2018-03-25T01:15:08.589Z,0.00
2018-03-25T01:16:08.534Z,0.00
2018-03-25T01:17:08.788Z,0.00
2018-03-25T01:18:08.441Z,0.00
2018-03-25T01:19:08.397Z,0.00
2018-03-25T01:20:08.347Z,0.00
2018-03-25T01:21:08.301Z,0.00
2018-03-25T01:22:08.257Z,0.00
2018-03-25T01:23:08.506Z,0.00
2018-03-25T01:24:08.156Z,0.00
2018-03-25T01:25:08.110Z,0.00
2018-03-25T01:26:08.087Z,0.00
2018-03-25T01:27:08.015Z,0.00
2018-03-25T01:28:07.967Z,0.00
2018-03-25T01:29:08.274Z,0.00
2018-03-25T01:30:07.884Z,0.00
2018-03-25T01:31:07.828Z,0.00
2018-03-25T01:32:07.780Z,0.00
2018-03-25T01:33:07.734Z,0.00
2018-03-25T01:34:07.833Z,0.00
2018-03-25T01:35:07.712Z,0.00
2018-03-25T01:36:07.897Z,0.00
2018-03-25T01:37:07.550Z,0.00
2018-03-25T01:38:07.495Z,0.00
2018-03-25T01:39:07.446Z,0.00
2018-03-25T01:40:07.400Z,0.00
2018-03-25T01:41:07.352Z,0.00
2018-03-25T01:42:07.306Z,0.00
2018-03-25T01:43:07.561Z,0.00
2018-03-25T01:44:07.212Z,0.00
2018-03-25T01:45:07.164Z,0.00
2018-03-25T01:46:07.115Z,0.00
2018-03-25T01:47:07.069Z,0.00
2018-03-25T01:48:07.019Z,0.00
2018-03-25T01:49:06.984Z,0.00
2018-03-25T01:50:07.229Z,0.00
2018-03-25T01:51:06.879Z,0.00
2018-03-25T01:52:06.880Z,0.00
2018-03-25T01:53:06.790Z,0.00
2018-03-25T01:54:06.736Z,0.00
2018-03-25T01:55:06.696Z,0.00
2018-03-25T01:56:06.642Z,0.00
2018-03-25T01:57:06.903Z,0.00
2018-03-25T01:58:06.558Z,0.00
2018-03-25T02:01:06.516Z,0.00
2018-03-25T02:02:06.363Z,0.00
2018-03-25T02:03:06.318Z,0.00
2018-03-25T02:04:06.560Z,0.00
2018-03-25T02:05:06.215Z,0.00
2018-03-25T02:06:06.165Z,0.00
2018-03-25T02:07:06.173Z,0.00
2018-03-25T02:08:06.078Z,0.00
2018-03-25T02:09:06.026Z,0.00
2018-03-25T02:10:06.279Z,0.00
2018-03-25T02:11:05.931Z,0.00
2018-03-25T02:12:05.887Z,0.00
2018-03-25T02:13:05.841Z,0.00
2018-03-25T02:14:05.794Z,0.00
2018-03-25T02:15:05.742Z,0.00
2018-03-25T02:16:05.998Z,0.00
2018-03-25T02:17:05.652Z,0.00
2018-03-25T02:18:05.601Z,0.00
2018-03-25T02:19:05.558Z,0.00
2018-03-25T02:20:05.506Z,0.00
2018-03-25T02:21:05.462Z,0.00
2018-03-25T02:22:05.711Z,0.00
2018-03-25T02:23:05.366Z,0.00
2018-03-25T02:24:05.319Z,0.00
2018-03-25T02:25:05.273Z,0.00
2018-03-25T02:26:05.223Z,0.00
2018-03-25T02:27:05.177Z,0.00
2018-03-25T02:28:05.427Z,0.00
2018-03-25T02:29:05.092Z,0.00
2018-03-25T02:30:05.035Z,0.00
2018-03-25T02:31:04.988Z,0.00
2018-03-25T02:32:04.938Z,0.00
2018-03-25T02:33:04.892Z,0.00
2018-03-25T02:34:05.161Z,0.00
2018-03-25T02:35:04.835Z,0.00
2018-03-25T02:36:04.802Z,0.00
2018-03-25T02:37:04.704Z,0.00
2018-03-25T02:38:04.658Z,0.00
2018-03-25T02:39:04.614Z,0.00
2018-03-25T02:40:04.865Z,0.00
2018-03-25T02:41:04.514Z,0.00
2018-03-25T02:42:04.470Z,0.00
2018-03-25T02:43:04.419Z,0.00
2018-03-25T02:44:04.373Z,0.00
2018-03-25T02:45:04.330Z,0.00
2018-03-25T02:46:04.277Z,0.00
2018-03-25T02:47:04.532Z,0.00
2018-03-25T02:48:04.182Z,0.00
2018-03-25T02:49:04.136Z,0.00
2018-03-25T02:50:04.088Z,0.00
2018-03-25T02:51:04.089Z,0.00
2018-03-25T02:52:03.998Z,0.00
2018-03-25T02:53:03.953Z,0.00
2018-03-25T02:54:04.201Z,0.00
2018-03-25T02:55:03.852Z,0.00
2018-03-25T02:56:03.805Z,0.00
2018-03-25T02:57:03.760Z,0.00
2018-03-25T02:58:03.711Z,0.00
2018-03-25T02:59:03.664Z,0.00
2018-03-25T03:00:03.615Z,0.00
2018-03-25T03:01:03.869Z,0.00
2018-03-25T03:02:03.526Z,0.00
2018-03-25T03:03:03.475Z,0.00
2018-03-25T03:04:03.427Z,0.00
2018-03-25T03:05:03.384Z,0.00
2018-03-25T03:06:03.333Z,0.00
2018-03-25T03:07:03.285Z,0.00
2018-03-25T03:08:03.539Z,0.00
2018-03-25T03:09:03.191Z,0.00
2018-03-25T03:10:03.144Z,0.00
2018-03-25T03:11:03.097Z,0.00
2018-03-25T03:12:03.049Z,0.00
2018-03-25T03:13:03.007Z,0.00
2018-03-25T03:14:02.955Z,0.00
2018-03-25T03:15:03.208Z,0.00
2018-03-25T03:16:02.865Z,0.00
2018-03-25T03:17:02.813Z,0.00
2018-03-25T03:18:02.767Z,0.00
2018-03-25T03:19:02.717Z,0.00
2018-03-25T03:20:02.670Z,0.00
2018-03-25T03:21:02.923Z,0.00
2018-03-25T03:22:02.579Z,0.00
2018-03-25T03:23:02.530Z,0.00
2018-03-25T03:24:02.482Z,0.00
2018-03-25T03:25:02.434Z,0.00
2018-03-25T03:26:02.390Z,0.00
2018-03-25T03:27:02.646Z,0.00
2018-03-25T03:28:02.296Z,0.00
2018-03-25T03:29:02.252Z,0.00
2018-03-25T03:30:02.202Z,0.00
2018-03-25T03:31:02.155Z,0.00
2018-03-25T03:32:02.160Z,0.00
2018-03-25T03:33:02.366Z,0.00
2018-03-25T03:34:02.013Z,0.00
2018-03-25T03:35:01.964Z,0.00
2018-03-25T03:36:01.915Z,0.00
2018-03-25T03:37:01.869Z,0.00
2018-03-25T03:38:01.823Z,0.00
2018-03-25T03:39:02.078Z,0.00
2018-03-25T03:40:01.730Z,0.00
2018-03-25T03:41:01.687Z,0.00
2018-03-25T03:42:01.656Z,0.00
2018-03-25T03:43:01.587Z,0.00
2018-03-25T03:44:01.540Z,0.00
2018-03-25T03:45:01.792Z,0.00
2018-03-25T03:46:01.444Z,0.00
2018-03-25T03:47:01.400Z,0.00
2018-03-25T03:48:01.351Z,0.00
2018-03-25T03:49:01.304Z,0.00
2018-03-25T03:50:01.257Z,0.00
2018-03-25T03:51:01.211Z,0.00
2018-03-25T03:52:01.463Z,0.00
2018-03-25T03:53:01.325Z,0.00
2018-03-25T03:54:01.068Z,0.00
2018-03-25T03:55:01.023Z,0.00
2018-03-25T03:56:00.981Z,0.00
2018-03-25T03:57:00.927Z,0.00
2018-03-25T03:58:00.891Z,0.00
2018-03-25T03:59:01.133Z,0.00
2018-03-25T04:00:00.786Z,0.00
2018-03-25T04:01:00.741Z,0.00
2018-03-25T04:02:00.693Z,0.00
2018-03-25T04:03:00.646Z,0.00
2018-03-25T04:04:00.598Z,0.00
2018-03-25T04:05:00.604Z,0.00
2018-03-25T04:06:00.812Z,0.00
2018-03-25T04:07:00.460Z,0.00
2018-03-25T04:08:00.412Z,0.00
2018-03-25T04:09:00.393Z,0.00
2018-03-25T04:10:00.322Z,0.00
2018-03-25T04:11:00.273Z,0.00
2018-03-25T04:12:00.223Z,0.00
2018-03-25T04:13:00.483Z,0.00
2018-03-25T04:14:00.130Z,0.00
2018-03-25T04:15:00.089Z,0.00
2018-03-25T04:16:00.034Z,0.00
2018-03-25T04:16:59.986Z,0.00
2018-03-25T04:17:59.950Z,0.00
2018-03-25T04:18:59.900Z,0.00
2018-03-25T04:20:00.146Z,0.00
2018-03-25T04:20:59.801Z,0.00
2018-03-25T04:21:59.753Z,0.00
2018-03-25T04:22:59.707Z,0.00
2018-03-25T04:23:59.656Z,0.00
2018-03-25T04:24:59.611Z,0.00
2018-03-25T04:25:59.562Z,0.00
2018-03-25T04:26:59.817Z,0.00
2018-03-25T04:27:59.469Z,0.00
2018-03-25T04:28:59.427Z,0.00
2018-03-25T04:29:59.379Z,0.00
2018-03-25T04:30:59.331Z,0.00
2018-03-25T04:31:59.281Z,0.00
2018-03-25T04:32:59.556Z,0.00
2018-03-25T04:33:59.186Z,0.00
2018-03-25T04:34:59.141Z,0.00
2018-03-25T04:35:59.095Z,0.00
2018-03-25T04:36:59.051Z,0.00
2018-03-25T04:37:59.005Z,0.00
2018-03-25T04:38:59.252Z,0.00
2018-03-25T04:39:58.904Z,0.00
2018-03-25T04:40:58.860Z,0.00
2018-03-25T04:41:58.816Z,0.00
2018-03-25T04:42:58.764Z,0.00
2018-03-25T04:43:58.714Z,0.00
2018-03-25T04:44:58.971Z,0.00
2018-03-25T04:45:58.625Z,0.00
2018-03-25T04:46:58.575Z,0.00
2018-03-25T04:47:58.531Z,0.00
2018-03-25T04:48:58.481Z,0.00
2018-03-25T04:49:58.432Z,0.00
2018-03-25T04:50:58.686Z,0.00
2018-03-25T04:51:58.339Z,0.00
2018-03-25T04:52:58.294Z,0.00
2018-03-25T04:53:58.247Z,0.00
2018-03-25T04:54:58.198Z,0.00
2018-03-25T04:55:58.159Z,0.00
2018-03-25T04:56:58.407Z,0.00
2018-03-25T04:57:58.063Z,0.00
2018-03-25T04:58:58.013Z,0.00
2018-03-25T04:59:57.964Z,0.00
2018-03-25T05:00:57.916Z,0.00
2018-03-25T05:01:57.870Z,0.00
2018-03-25T05:02:57.823Z,0.00
2018-03-25T05:03:58.082Z,0.00
2018-03-25T05:04:57.728Z,0.00
2018-03-25T05:05:57.686Z,0.00
2018-03-25T05:06:57.670Z,0.00
2018-03-25T05:07:57.592Z,0.00
2018-03-25T05:08:57.545Z,0.00
2018-03-25T05:09:57.493Z,0.00
2018-03-25T05:10:57.748Z,0.00
2018-03-25T05:11:57.408Z,0.00
2018-03-25T05:12:57.353Z,0.00
2018-03-25T05:13:57.316Z,0.00
2018-03-25T05:14:57.261Z,5.63
2018-03-25T05:15:57.217Z,5.63
2018-03-25T05:16:57.167Z,5.63
2018-03-25T05:17:57.420Z,5.63
2018-03-25T05:18:57.074Z,5.63
2018-03-25T05:19:57.030Z,5.63
2018-03-25T05:20:56.983Z,5.63
2018-03-25T05:21:57.758Z,11.25
2018-03-25T05:22:57.335Z,11.25
2018-03-25T05:23:57.417Z,11.25
2018-03-25T05:24:58.268Z,11.25
2018-03-25T05:25:57.215Z,11.25
2018-03-25T05:26:57.451Z,16.88
2018-03-25T05:27:57.311Z,16.88
2018-03-25T05:28:56.827Z,16.88
2018-03-25T05:29:57.308Z,16.88
2018-03-25T05:30:56.720Z,22.50
2018-03-25T05:31:59.309Z,22.50
2018-03-25T05:32:56.898Z,22.50
2018-03-25T05:33:57.056Z,28.13
2018-03-25T05:34:58.518Z,28.13
2018-03-25T05:35:56.705Z,28.13
2018-03-25T05:36:57.295Z,33.75
2018-03-25T05:37:57.474Z,33.75
2018-03-25T05:38:56.852Z,39.38
2018-03-25T05:39:56.794Z,39.38
2018-03-25T05:40:56.471Z,45.00
2018-03-25T05:41:56.244Z,45.00
2018-03-25T05:42:56.091Z,50.63
2018-03-25T05:43:56.873Z,56.25
2018-03-25T05:44:59.070Z,56.25
2018-03-25T05:45:56.039Z,56.25
2018-03-25T05:46:58.103Z,61.88
2018-03-25T05:47:55.716Z,61.88
2018-03-25T05:48:55.675Z,61.88
2018-03-25T05:49:55.630Z,67.50
2018-03-25T05:50:55.880Z,67.50
2018-03-25T05:51:55.536Z,67.50
2018-03-25T05:52:55.485Z,73.13
2018-03-25T05:53:55.493Z,73.13
2018-03-25T05:54:55.390Z,78.75
2018-03-25T05:55:55.345Z,78.75
2018-03-25T05:56:55.759Z,84.38
2018-03-25T05:57:55.252Z,84.38
2018-03-25T05:58:55.206Z,84.38
2018-03-25T05:59:55.161Z,90.00
2018-03-25T06:00:55.110Z,90.00
2018-03-25T06:01:55.065Z,90.00
2018-03-25T06:02:55.318Z,95.63
2018-03-25T06:03:54.971Z,95.63
2018-03-25T06:04:54.939Z,95.63
2018-03-25T06:05:54.882Z,95.63
2018-03-25T06:06:54.836Z,101.25
2018-03-25T06:07:54.792Z,101.25
2018-03-25T06:08:55.040Z,106.88
2018-03-25T06:09:54.700Z,106.88
2018-03-25T06:10:54.647Z,112.50
2018-03-25T06:11:54.607Z,118.13
2018-03-25T06:12:54.555Z,118.13
2018-03-25T06:13:54.548Z,118.13
2018-03-25T06:14:54.473Z,118.13
2018-03-25T06:15:54.772Z,123.75
2018-03-25T06:16:54.374Z,129.38
2018-03-25T06:17:54.324Z,140.63
2018-03-25T06:18:54.276Z,146.25
2018-03-25T06:19:54.232Z,151.88
2018-03-25T06:20:54.187Z,157.50
2018-03-25T06:21:54.141Z,163.13
2018-03-25T06:22:54.392Z,168.75
2018-03-25T06:23:54.045Z,180.00
2018-03-25T06:24:54.004Z,185.63
2018-03-25T06:25:53.954Z,191.25
2018-03-25T06:26:53.908Z,191.25
2018-03-25T06:27:53.861Z,196.88
2018-03-25T06:28:53.816Z,196.88
2018-03-25T06:29:54.076Z,196.88
2018-03-25T06:30:53.727Z,202.50
2018-03-25T06:31:53.678Z,202.50
2018-03-25T06:32:53.643Z,208.13
2018-03-25T06:33:53.590Z,208.13
2018-03-25T06:34:53.549Z,219.38
2018-03-25T06:35:53.495Z,213.75
2018-03-25T06:36:53.751Z,219.38
2018-03-25T06:37:53.408Z,225.00
2018-03-25T06:38:53.361Z,230.63
2018-03-25T06:39:53.326Z,230.63
2018-03-25T06:40:53.270Z,241.88
2018-03-25T06:41:53.221Z,241.88
2018-03-25T06:42:53.180Z,247.50
2018-03-25T06:43:53.430Z,253.13
2018-03-25T06:44:53.085Z,258.75
2018-03-25T06:45:53.044Z,270.00
2018-03-25T06:46:52.998Z,281.25
2018-03-25T06:47:52.955Z,292.50
2018-03-25T06:48:52.903Z,303.75
2018-03-25T06:49:52.861Z,315.00
2018-03-25T06:50:53.115Z,320.63
2018-03-25T06:51:52.770Z,326.25
2018-03-25T06:52:52.720Z,331.88
2018-03-25T06:53:52.684Z,337.50
2018-03-25T06:54:52.641Z,337.50
2018-03-25T06:55:52.592Z,343.13
2018-03-25T06:56:52.840Z,354.38
2018-03-25T06:57:52.495Z,365.63
2018-03-25T06:58:52.455Z,376.88
2018-03-25T06:59:52.407Z,382.50
2018-03-25T07:00:52.365Z,382.50
2018-03-25T07:01:52.316Z,393.75
2018-03-25T07:02:52.571Z,399.38
2018-03-25T07:03:52.224Z,410.63
2018-03-25T07:04:52.180Z,416.25
2018-03-25T07:05:52.135Z,421.88
2018-03-25T07:06:52.091Z,421.88
2018-03-25T07:07:52.045Z,433.13
2018-03-25T07:08:52.302Z,438.75
2018-03-25T07:09:51.963Z,444.38
2018-03-25T07:10:51.911Z,455.63
2018-03-25T07:11:51.864Z,466.88
2018-03-25T07:12:51.828Z,478.13
2018-03-25T07:13:51.781Z,489.38
2018-03-25T07:14:52.034Z,495.00
2018-03-25T07:15:51.688Z,506.25
2018-03-25T07:16:51.648Z,517.50
2018-03-25T07:17:51.596Z,528.75
2018-03-25T07:18:51.552Z,545.63
2018-03-25T07:19:51.513Z,551.25
2018-03-25T07:20:51.764Z,556.88
2018-03-25T07:21:51.428Z,562.50
2018-03-25T07:22:51.373Z,579.38
2018-03-25T07:23:51.326Z,590.63
2018-03-25T07:24:51.296Z,601.88
2018-03-25T07:25:51.238Z,613.13
2018-03-25T07:26:51.196Z,618.75
2018-03-25T07:27:51.450Z,618.75
2018-03-25T07:28:51.116Z,618.75
2018-03-25T07:29:51.061Z,624.38
2018-03-25T07:30:51.018Z,635.63
2018-03-25T07:31:51.173Z,641.25
2018-03-25T07:32:50.928Z,635.63
2018-03-25T07:33:50.892Z,630.00
2018-03-25T07:34:51.141Z,624.38
2018-03-25T07:35:50.800Z,630.00
2018-03-25T07:36:50.758Z,641.25
2018-03-25T07:37:50.711Z,641.25
2018-03-25T07:38:50.668Z,641.25
2018-03-25T07:39:50.621Z,641.25
2018-03-25T07:40:50.576Z,641.25
2018-03-25T07:41:50.834Z,646.88
2018-03-25T07:42:50.492Z,663.75
2018-03-25T07:43:50.458Z,686.25
2018-03-25T07:44:50.409Z,714.38
2018-03-25T07:45:50.359Z,742.50
2018-03-25T07:46:50.315Z,770.63
2018-03-25T07:47:50.279Z,787.50
2018-03-25T07:48:50.535Z,804.38
2018-03-25T07:49:50.191Z,821.25
2018-03-25T07:50:50.146Z,821.25
2018-03-25T07:51:50.097Z,821.25
2018-03-25T07:52:50.054Z,810.00
2018-03-25T07:53:50.060Z,793.13
2018-03-25T07:54:50.018Z,793.13
2018-03-25T07:55:50.225Z,781.88
2018-03-25T07:56:49.932Z,770.63
2018-03-25T07:57:49.838Z,753.75
2018-03-25T07:58:49.851Z,748.13
2018-03-25T07:59:49.801Z,748.13
2018-03-25T08:00:49.708Z,742.50
2018-03-25T08:01:50.014Z,748.13
2018-03-25T08:02:49.620Z,731.25
2018-03-25T08:03:49.631Z,708.75
2018-03-25T08:04:49.583Z,691.88
2018-03-25T08:05:49.694Z,680.63
2018-03-25T08:06:49.549Z,680.63
2018-03-25T08:07:49.715Z,691.88
2018-03-25T08:08:49.670Z,708.75
2018-03-25T08:09:49.326Z,714.38
2018-03-25T08:10:49.279Z,708.75
2018-03-25T08:11:49.291Z,714.38
2018-03-25T08:12:49.191Z,720.00
2018-03-25T08:13:49.448Z,736.88
2018-03-25T08:14:49.105Z,753.75
2018-03-25T08:15:49.062Z,781.88
2018-03-25T08:16:49.070Z,798.75
2018-03-25T08:17:49.132Z,804.38
2018-03-25T08:18:48.939Z,810.00
2018-03-25T08:19:49.190Z,821.25
2018-03-25T08:20:48.852Z,832.50
2018-03-25T08:21:48.808Z,855.00
2018-03-25T08:22:48.964Z,877.50
2018-03-25T08:23:48.724Z,888.75
2018-03-25T08:24:48.882Z,894.38
2018-03-25T08:25:48.934Z,894.38
2018-03-25T08:26:48.593Z,894.38
2018-03-25T08:27:48.550Z,900.00
2018-03-25T08:28:48.509Z,883.13
2018-03-25T08:29:48.566Z,871.88
2018-03-25T08:30:48.420Z,860.63
2018-03-25T08:31:48.726Z,855.00
2018-03-25T08:32:48.334Z,849.38
2018-03-25T08:33:48.302Z,855.00
2018-03-25T08:34:48.329Z,860.63
2018-03-25T08:35:48.506Z,855.00
2018-03-25T08:36:48.320Z,849.38
2018-03-25T08:37:48.123Z,838.13
2018-03-25T08:38:48.380Z,832.50
2018-03-25T08:39:48.085Z,832.50
2018-03-25T08:40:48.045Z,832.50
2018-03-25T08:41:48.005Z,838.13
2018-03-25T08:42:48.060Z,838.13
2018-03-25T08:43:47.872Z,843.75
2018-03-25T08:44:47.874Z,849.38
2018-03-25T08:45:48.184Z,860.63
2018-03-25T08:46:47.789Z,871.88
2018-03-25T08:47:47.696Z,866.25
2018-03-25T08:48:47.658Z,843.75
2018-03-25T08:49:47.615Z,832.50
2018-03-25T08:50:47.573Z,832.50
2018-03-25T08:51:47.576Z,838.13
2018-03-25T08:52:47.786Z,855.00
2018-03-25T08:53:47.494Z,860.63
2018-03-25T08:54:47.452Z,866.25
2018-03-25T08:55:47.363Z,871.88
2018-03-25T08:56:47.366Z,894.38
2018-03-25T08:57:47.278Z,911.25
2018-03-25T08:58:47.283Z,911.25
2018-03-25T08:59:47.549Z,905.63
2018-03-25T09:00:47.152Z,911.25
2018-03-25T09:01:47.309Z,916.88
2018-03-25T09:02:47.069Z,928.13
2018-03-25T09:03:47.074Z,933.75
2018-03-25T09:04:47.036Z,933.75
2018-03-25T09:05:46.937Z,939.38
2018-03-25T09:06:47.253Z,928.13
2018-03-25T09:07:46.853Z,933.75
2018-03-25T09:08:46.960Z,939.38
2018-03-25T09:09:46.821Z,950.63
2018-03-25T09:10:46.726Z,950.63
2018-03-25T09:11:46.736Z,956.25
2018-03-25T09:12:46.651Z,961.88
2018-03-25T09:13:47.002Z,956.25
2018-03-25T09:14:46.623Z,950.63
2018-03-25T09:15:46.520Z,945.00
2018-03-25T09:16:46.532Z,939.38
2018-03-25T09:17:46.441Z,939.38
2018-03-25T09:18:46.719Z,950.63
2018-03-25T09:19:46.659Z,961.88
2018-03-25T09:20:46.310Z,984.38
2018-03-25T09:21:46.588Z,1001.25
2018-03-25T09:22:46.229Z,1012.50
2018-03-25T09:23:46.235Z,1029.38
2018-03-25T09:24:46.196Z,1029.38
2018-03-25T09:25:46.404Z,1040.63
2018-03-25T09:26:46.113Z,1051.88
2018-03-25T09:27:46.020Z,1057.50
2018-03-25T09:28:46.130Z,1068.75
2018-03-25T09:29:45.988Z,1057.50
2018-03-25T09:30:45.897Z,1057.50
2018-03-25T09:31:46.355Z,1068.75
2018-03-25T09:32:45.827Z,1074.38
2018-03-25T09:33:45.835Z,1080.00
2018-03-25T09:34:45.799Z,1091.25
2018-03-25T09:35:45.692Z,1096.88
2018-03-25T09:36:45.752Z,1091.25
2018-03-25T09:37:45.920Z,1080.00
2018-03-25T09:38:45.625Z,1074.38
2018-03-25T09:39:45.580Z,1068.75
2018-03-25T09:40:45.488Z,1074.38
2018-03-25T09:41:45.548Z,1080.00
2018-03-25T09:42:45.467Z,1085.63
2018-03-25T09:43:45.867Z,1080.00
2018-03-25T09:44:45.382Z,1080.00
2018-03-25T09:45:45.291Z,1080.00
2018-03-25T09:46:45.306Z,1085.63
2018-03-25T09:47:45.263Z,1085.63
2018-03-25T09:48:45.316Z,1085.63
2018-03-25T09:49:45.322Z,1080.00
2018-03-25T09:50:45.384Z,1085.63
2018-03-25T09:51:45.095Z,1080.00
2018-03-25T09:52:45.225Z,1074.38
2018-03-25T09:53:45.114Z,1068.75
2018-03-25T09:54:44.924Z,1068.75
2018-03-25T09:55:44.880Z,1068.75
2018-03-25T09:56:44.890Z,1080.00
2018-03-25T09:57:45.105Z,1085.63
2018-03-25T09:58:44.828Z,1074.38
2018-03-25T09:59:44.876Z,1051.88
2018-03-25T10:00:44.679Z,1035.00
2018-03-25T10:01:44.694Z,1018.13
2018-03-25T10:02:44.748Z,1018.13
2018-03-25T10:03:44.583Z,1023.75
2018-03-25T10:04:45.068Z,1035.00
2018-03-25T10:05:44.484Z,1046.25
2018-03-25T10:06:44.487Z,1063.13
2018-03-25T10:07:44.548Z,1080.00
2018-03-25T10:08:44.359Z,1091.25
2018-03-25T10:09:44.479Z,1108.13
2018-03-25T10:10:44.326Z,1125.00
2018-03-25T10:11:44.637Z,1141.88
2018-03-25T10:12:44.347Z,1164.38
2018-03-25T10:13:44.153Z,1170.00
2018-03-25T10:14:44.164Z,1186.88
2018-03-25T10:15:44.072Z,1192.50
2018-03-25T10:16:44.088Z,1198.13
2018-03-25T10:17:44.046Z,1215.00
2018-03-25T10:18:44.251Z,1237.50
2018-03-25T10:19:43.961Z,1260.00
2018-03-25T10:20:43.870Z,1282.50
2018-03-25T10:21:43.884Z,1293.75
2018-03-25T10:22:43.841Z,1293.75
2018-03-25T10:23:43.749Z,1276.88
2018-03-25T10:24:43.710Z,1260.00
2018-03-25T10:25:43.976Z,1248.75
2018-03-25T10:26:43.845Z,1248.75
2018-03-25T10:27:43.642Z,1260.00
2018-03-25T10:28:43.899Z,1271.25
2018-03-25T10:29:43.562Z,1293.75
2018-03-25T10:30:43.624Z,1321.88
2018-03-25T10:31:43.935Z,1350.00
2018-03-25T10:32:43.449Z,1383.75
2018-03-25T10:33:43.356Z,1406.25
2018-03-25T10:34:43.464Z,1417.50
2018-03-25T10:35:43.322Z,1428.75
2018-03-25T10:36:43.284Z,1440.00
2018-03-25T10:37:43.584Z,1451.25
2018-03-25T10:38:43.159Z,1456.88
2018-03-25T10:39:43.166Z,1462.50
2018-03-25T10:40:43.276Z,1473.75
2018-03-25T10:41:43.241Z,1496.25
2018-03-25T10:42:43.049Z,1490.63
2018-03-25T10:43:43.265Z,1518.75
2018-03-25T10:44:42.974Z,1535.63
2018-03-25T10:45:43.038Z,1558.13
2018-03-25T10:46:42.842Z,1580.63
2018-03-25T10:47:42.854Z,1586.25
2018-03-25T10:48:42.770Z,1575.00
2018-03-25T10:49:43.075Z,1569.38
2018-03-25T10:50:42.735Z,1563.75
2018-03-25T10:51:42.711Z,1552.50
2018-03-25T10:52:42.662Z,1541.25
2018-03-25T10:53:42.571Z,1558.13
2018-03-25T10:54:42.580Z,1591.88
2018-03-25T10:55:42.844Z,1636.88
2018-03-25T10:56:42.554Z,1676.25
2018-03-25T10:57:42.464Z,1693.13
2018-03-25T10:58:42.379Z,1687.50
2018-03-25T10:59:42.490Z,1687.50
2018-03-25T11:00:42.350Z,1693.13
2018-03-25T11:01:42.309Z,1721.25
2018-03-25T11:02:42.576Z,1743.75
2018-03-25T11:03:42.184Z,1749.38
2018-03-25T11:04:42.213Z,1726.88
2018-03-25T11:05:42.158Z,1715.63
2018-03-25T11:06:42.220Z,1721.25
2018-03-25T11:07:42.081Z,1732.50
2018-03-25T11:08:41.993Z,1760.63
2018-03-25T11:09:42.306Z,1771.88
2018-03-25T11:10:41.968Z,1771.88
2018-03-25T11:11:41.883Z,1777.50
2018-03-25T11:12:42.041Z,1788.75
2018-03-25T11:13:41.823Z,1788.75
2018-03-25T11:14:41.816Z,1766.25
2018-03-25T11:15:42.029Z,1766.25
2018-03-25T11:16:41.991Z,1766.25
2018-03-25T11:17:41.857Z,1771.88
2018-03-25T11:18:41.623Z,1755.00
2018-03-25T11:19:41.631Z,1743.75
2018-03-25T11:20:41.598Z,1755.00
2018-03-25T11:21:41.502Z,1755.00
2018-03-25T11:22:41.515Z,1743.75
2018-03-25T11:23:41.734Z,1721.25
2018-03-25T11:24:41.545Z,1715.63
2018-03-25T11:25:41.409Z,1698.75
2018-03-25T11:26:41.321Z,1676.25
2018-03-25T11:27:41.339Z,1648.13
2018-03-25T11:28:41.243Z,1620.00
2018-03-25T11:29:41.261Z,1575.00
2018-03-25T11:30:41.477Z,1580.63
2018-03-25T11:31:41.182Z,1575.00
2018-03-25T11:32:41.142Z,1552.50
2018-03-25T11:33:41.057Z,1575.00
2018-03-25T11:34:41.323Z,1665.00
2018-03-25T11:35:41.037Z,1603.13
2018-03-25T11:36:40.951Z,1620.00
2018-03-25T11:37:41.256Z,1575.00
2018-03-25T11:38:40.868Z,1496.25
2018-03-25T11:39:40.880Z,1428.75
2018-03-25T11:40:40.993Z,1389.38
2018-03-25T11:41:40.757Z,1366.88
2018-03-25T11:42:40.867Z,1344.38
2018-03-25T11:43:40.982Z,1321.88
2018-03-25T11:44:40.943Z,1288.13
2018-03-25T11:45:40.656Z,1226.25
2018-03-25T11:46:40.579Z,1181.25
2018-03-25T11:47:40.580Z,1136.25
2018-03-25T11:48:40.492Z,1096.88
2018-03-25T11:49:40.904Z,1085.63
2018-03-25T11:50:40.468Z,1051.88
2018-03-25T11:51:40.378Z,1018.13
2018-03-25T11:52:40.394Z,995.63
2018-03-25T11:53:40.301Z,967.50
2018-03-25T11:54:40.313Z,956.25
2018-03-25T11:55:40.523Z,945.00
2018-03-25T11:56:40.237Z,928.13
2018-03-25T11:57:40.196Z,922.50
2018-03-25T11:58:40.106Z,911.25
2018-03-25T11:59:40.163Z,900.00
2018-03-25T12:00:40.079Z,877.50
2018-03-25T12:01:40.985Z,871.88
2018-03-25T12:02:40.433Z,866.25
2018-03-25T12:03:40.658Z,855.00
2018-03-25T12:04:40.024Z,849.38
2018-03-25T12:05:39.890Z,843.75
2018-03-25T12:06:39.809Z,832.50
2018-03-25T12:07:40.260Z,826.88
2018-03-25T12:08:39.775Z,810.00
2018-03-25T12:09:39.731Z,798.75
2018-03-25T12:10:39.687Z,787.50
2018-03-25T12:11:39.609Z,781.88
2018-03-25T12:12:39.857Z,776.25
2018-03-25T12:13:39.826Z,770.63
2018-03-25T12:14:39.530Z,759.38
2018-03-25T12:15:39.488Z,753.75
2018-03-25T12:16:39.402Z,742.50
2018-03-25T12:17:39.781Z,736.88
2018-03-25T12:18:39.522Z,720.00
2018-03-25T12:19:39.581Z,708.75
2018-03-25T12:20:39.537Z,708.75
2018-03-25T12:21:39.654Z,697.50
2018-03-25T12:22:39.215Z,691.88
2018-03-25T12:23:39.166Z,691.88
2018-03-25T12:24:39.135Z,691.88
2018-03-25T12:25:39.250Z,691.88
2018-03-25T12:26:38.997Z,691.88
2018-03-25T12:27:39.310Z,691.88
2018-03-25T12:28:38.967Z,691.88
2018-03-25T12:29:38.931Z,691.88
2018-03-25T12:30:39.037Z,697.50
2018-03-25T12:31:38.794Z,703.13
2018-03-25T12:32:38.806Z,714.38
2018-03-25T12:33:38.813Z,725.63
2018-03-25T12:34:39.022Z,731.25
2018-03-25T12:35:38.683Z,742.50
2018-03-25T12:36:38.591Z,753.75
2018-03-25T12:37:38.605Z,759.38
2018-03-25T12:38:38.579Z,759.38
2018-03-25T12:39:38.682Z,759.38
2018-03-25T12:40:38.487Z,765.00
2018-03-25T12:41:38.700Z,770.63
2018-03-25T12:42:38.415Z,770.63
2018-03-25T12:43:38.461Z,776.25
2018-03-25T12:44:38.355Z,787.50
2018-03-25T12:45:38.286Z,793.13
2018-03-25T12:46:38.192Z,804.38